createdAt,value
2018-01-13T00:06:21.743Z,67.5
2018-01-13T00:26:23.101Z,78.4
2018-01-13T00:41:21.725Z,84.9
2018-01-13T01:11:31.958Z,75.4
2018-01-13T01:31:31.741Z,57.1
2018-01-13T01:46:21.883Z,62.8
2018-01-13T02:01:22.043Z,48.7
2018-01-13T02:21:21.698Z,45.8
2018-01-13T02:36:21.721Z,58.5
2018-01-13T02:51:21.846Z,58.7
2018-01-13T03:06:21.901Z,47.5
2018-01-13T03:26:21.899Z,52.3
2018-01-13T03:41:21.878Z,44.7
2018-01-13T03:56:21.957Z,58.6
2018-01-13T04:16:21.868Z,54.4
2018-01-13T04:31:21.832Z,60.7
2018-01-13T04:46:21.845Z,70.5
2018-01-13T05:01:21.869Z,53.7
2018-01-13T05:21:21.936Z,48.1
2018-01-13T05:36:21.833Z,47.4
2018-01-13T05:51:21.895Z,48
2018-01-13T06:11:21.957Z,53.2
2018-01-13T06:26:21.872Z,60
2018-01-13T06:41:22.007Z,67
2018-01-13T06:56:21.899Z,52.6
2018-01-13T07:16:21.836Z,50.6
2018-01-13T07:31:22.124Z,47.9
2018-01-13T07:46:22.904Z,34.9
2018-01-13T08:06:21.988Z,46.8
2018-01-13T08:21:22.061Z,38.2
2018-01-13T08:36:21.964Z,45.3
2018-01-13T09:11:22.157Z,50.2
2018-01-13T09:26:22.194Z,54
2018-01-13T09:41:22.044Z,48.9
2018-01-13T10:01:22.007Z,49.2
2018-01-13T11:20:51.175Z,54
2018-01-13T11:39:10.989Z,44.6
2018-01-13T11:54:01.032Z,55.5
2018-01-13T12:09:01.085Z,48.6
2018-01-13T12:29:01.082Z,48.2
2018-01-13T12:44:01.084Z,43.5
2018-01-13T12:59:01.220Z,51.5
2018-01-13T13:19:02.837Z,53.1
2018-01-13T13:34:01.212Z,52.5
2018-01-13T13:49:01.155Z,43.7
2018-01-13T14:04:01.105Z,43
2018-01-13T14:24:01.219Z,36.2
2018-01-13T14:39:09.471Z,45.2
2018-01-13T14:54:01.234Z,35.9
2018-01-13T15:14:01.261Z,41.5
2018-01-13T15:44:02.707Z,27.9
2018-01-13T15:59:01.472Z,36.7
2018-01-13T16:19:02.073Z,28.5
2018-01-13T16:34:01.482Z,28.7
2018-01-13T16:49:01.437Z,31.2
2018-01-13T17:09:01.306Z,35
2018-01-13T17:24:01.273Z,22.9
2018-01-13T17:39:01.541Z,21.8
2018-01-13T17:54:02.600Z,23.4
2018-01-13T18:14:01.335Z,16.5
2018-01-13T18:29:01.516Z,13
2018-01-13T18:59:01.464Z,16.6
2018-01-13T19:19:01.735Z,16.8
2018-01-13T19:34:01.309Z,17.2
2018-01-13T19:49:02.534Z,20.8
2018-01-13T20:09:01.684Z,18.5
2018-01-13T20:24:01.819Z,23.9
2018-01-13T20:39:02.269Z,25.5
2018-01-13T20:54:02.385Z,29.4
2018-01-13T21:14:01.488Z,30.7
2018-01-13T21:29:02.085Z,31.2
2018-01-13T21:44:01.459Z,37.8
2018-01-13T22:04:01.639Z,32.1
2018-01-13T22:19:02.015Z,33.5
2018-01-13T22:34:01.439Z,25.1
2018-01-13T22:49:01.497Z,21.8
2018-01-13T23:09:01.490Z,17.9
2018-01-13T23:24:01.632Z,16.7
2018-01-13T23:39:01.411Z,16.6
2018-01-13T23:59:01.417Z,14.6
